Aeroporto :
LOGIN :

Iscrizione | Disclaimer

   EN    FR    IT 

 










Sommario :    VFR   VFR Marginale   IFR   IFR Intensivo   IFR Molto Intensivo
Visibilità : 
Base nubi : 
>= 8 km
>= 3000ft
5 / 8 km
1000 / 3000 ft
1500m / 5 km
500 / 1000 ft
800 / 1500m
200 / 500 ft
< 800m
< 200 ft
Simboli :   Temporali  Nebbia  Neve Forte  Precipitazioni Forti  Vento > 20 kt
SIGMETs :   Varie  Temporali  Ghiacco  Turbolenza  Onda orograficha  Ceneri Vulcaniche






- Altitudine del aeroporto : 137 ft


LIPS - Istrana AFB Treviso

ULTIMO METAR :
  • 231055Z 17003KT 9999 FEW015 FEW030CB 23/20 Q1010 RMK BKN BKN160 VIS MIN 9999 WIND THR26 10002KT WIND THR08 17002KT BLU

METARs OBSOLETI :
  • 230955Z 07001KT 9000 FEW010 FEW015TCU 21/19 Q1010 RMK BKN BKN170 VIS MIN 9000 WIND THR26 07001KT WIND THR08 16002KT BLU
  • 230855Z 36002KT 6000 SCT006 SCT015 BKN100 20/18 Q1011 RMK BKN VIS MIN 6000 WIND THR26 35001KT WIND THR08 06001KT WHT

TAF TAF LIPS
Valido dal 23 a 09 ore il 23 a 18 ore UTC


230800Z 2309/2318 VRB03KT 7000 SCT020 BKN080
TEMPO 2309/2312 4000 RA FEW005 BKN025
PROB40
TEMPO 2312/2318 2500 TSRA FEW015CB BKN020



MetMap, La meteo Aeronautica in un colpo d'occhio ! - Copyright ORBIFLY Dicembre 2007 - Disclaimer

ORBIFLY MET'MAP TEAM :

Programmazione e sviluppo : Alexandra Zaïnal
Concezione : Baudouin d'Aumeries
Aiuto per la programmazione : Marc-Olivier Méhu
Supporto tecnico e logistico : Manuel Goepfert
Aiuto per la traduzione : Arnaldo La Scala

Contatto : metmap@orbifly.com




FONTI E CREDITI :

   NOAA